Información del aeropuerto LIEE

Información de pista
Pista 14 Longitud 9196 ft Anchura 148 ft
Elevación 9 ft Umbral 0 ft Rumbo 138
Pista 32 Longitud 9196 ft Anchura 148 ft
Elevación 4 ft Umbral 0 ft Rumbo 318
Frecuencias del aeropuerto
Tipo APP Nombre CAGLIARI A Frecuencia 118.75 MHZ
Tipo GND Nombre Elmas GND Frecuencia 125.425 MHZ
Tipo MISC Nombre SAR Frecuencia 123.1 MHZ
Tipo TWR Nombre TWR Frecuencia 120.6 MHZ
Radioayudas del aeropuerto
Tipo VOR-DME Nombre Cagliari Frecuencia 113400 KHZ
Tipo NDB Nombre Cagliari Frecuencia 371 KHZ
Información meteorológica del aeropuerto y NOTAM
ADDS - METARS form results

(2131 UTC 19 May 2022)
Data provider http://aviationweather.gov/metar/data/
 
METAR text: LIEE 192120Z 19008KT CAVOK 21/18 Q1025
Conditions at: LIEE (CAGLIARI/ELMAS(A, IT) observed 2120 UTC 19 May 2022
Temperature: 21.0°C (70°F)
Dewpoint: 18.0°C (64°F) [RH = 83%]
Pressure (altimeter): 30.27 inches Hg (1025.0 mb)
Winds: from the S (190 degrees) at 9 MPH (8 knots; 4.1 m/s)
Visibility: 6 or more miles (10+ km)
Ceiling: ceiling and visibility are OK
Clouds: unknown
Weather: no significant weather observed at this time

METAR text: LIEE 192050Z 20009KT CAVOK 21/18 Q1025
Conditions at: LIEE (CAGLIARI/ELMAS(A, IT) observed 2050 UTC 19 May 2022
Temperature: 21.0°C (70°F)
Dewpoint: 18.0°C (64°F) [RH = 83%]
Pressure (altimeter): 30.27 inches Hg (1025.0 mb)
Winds: from the SSW (200 degrees) at 10 MPH (9 knots; 4.6 m/s)
Visibility: 6 or more miles (10+ km)
Ceiling: ceiling and visibility are OK
Clouds: unknown
Weather: no significant weather observed at this time

Forecast for: LIEE (CAGLIARI/ELMAS(A, IT)
Text: TAF LIEE 191700Z 1918/2018 16010KT CAVOK
Forecast period: 1800 UTC 19 May 2022 to 1800 UTC 20 May 2022
Forecast type: FROM: standard forecast or significant change
Winds: from the SSE (160 degrees) at 12 MPH (10 knots; 5.1 m/s)
Visibility: 6 or more miles (10+ km)
Ceiling: unknown
Clouds: missing
Weather: NSW  (no significant weather)
Text: BECMG 1918/1920 VRB05KT
Forecast period: 1800 UTC 19 May 2022 to 0700 UTC 20 May 2022
Forecast type: BECOMING: Conditions expected to become as follows by 2000 UTC 19 May 2022
Winds: variable direction winds at 6 MPH (5 knots; 2.6 m/s)
Visibility: 6 or more miles (10+ km)
Ceiling: unknown
Clouds: missing
Weather: NSW  (no significant weather)
Text: BECMG 2007/2009 15012KT
Forecast period: 0700 to 1800 UTC 20 May 2022
Forecast type: BECOMING: Conditions expected to become as follows by 0900 UTC 20 May 2022
Winds: from the SSE (150 degrees) at 14 MPH (12 knots; 6.2 m/s)
Visibility: 6 or more miles (10+ km)
Ceiling: unknown
Clouds: missing
Weather: NSW  (no significant weather)